createdAt,value
2018-08-31T00:02:35.984Z,6.83
2018-08-31T00:05:51.556Z,7.00
2018-08-31T00:09:03.645Z,6.50
2018-08-31T00:12:42.989Z,7.07
2018-08-31T00:15:13.816Z,7.20
2018-08-31T00:17:45.161Z,7.27
2018-08-31T00:20:16.244Z,7.07
2018-08-31T00:22:46.634Z,7.50
2018-08-31T00:26:32.126Z,7.57
2018-08-31T00:29:54.028Z,7.87
2018-08-31T00:33:12.236Z,6.97
2018-08-31T00:37:00.865Z,7.90
2018-08-31T00:40:21.858Z,7.63
2018-08-31T00:45:40.481Z,6.70
2018-08-31T00:48:11.205Z,9.83
2018-08-31T00:50:42.401Z,15.47
2018-08-31T00:53:13.048Z,14.10
2018-08-31T00:55:43.981Z,12.30
2018-08-31T00:58:14.556Z,11.17
2018-08-31T01:00:46.877Z,10.60
2018-08-31T01:03:17.554Z,10.93
2018-08-31T01:05:48.160Z,9.87
2018-08-31T01:08:18.885Z,9.67
2018-08-31T01:10:49.695Z,9.97
2018-08-31T01:13:20.288Z,10.47
2018-08-31T01:15:51.172Z,9.80
2018-08-31T01:18:21.845Z,9.57
2018-08-31T01:20:52.555Z,10.53
2018-08-31T01:23:23.233Z,10.13
2018-08-31T01:25:54.068Z,9.40
2018-08-31T01:28:24.790Z,10.43
2018-08-31T01:30:55.657Z,9.83
2018-08-31T01:33:26.415Z,9.70
2018-08-31T01:35:57.197Z,9.47
2018-08-31T01:38:27.993Z,10.50
2018-08-31T01:40:58.749Z,9.93
2018-08-31T01:43:29.485Z,9.83
2018-08-31T01:46:00.279Z,9.80
2018-08-31T01:48:30.772Z,10.60
2018-08-31T01:51:06.562Z,9.90
2018-08-31T01:53:37.236Z,10.43
2018-08-31T01:56:08.020Z,10.20
2018-08-31T01:58:38.609Z,10.90
2018-08-31T02:01:09.597Z,10.90
2018-08-31T02:03:40.253Z,11.77
2018-08-31T02:06:11.008Z,11.20
2018-08-31T02:08:46.695Z,11.53
2018-08-31T02:11:17.368Z,11.00
2018-08-31T02:13:48.021Z,11.10
2018-08-31T02:16:18.681Z,11.20
2018-08-31T02:18:49.384Z,11.13
2018-08-31T02:21:20.180Z,11.27
2018-08-31T02:23:50.797Z,10.90
2018-08-31T02:26:21.473Z,11.57
2018-08-31T02:28:52.027Z,12.20
2018-08-31T02:31:23.110Z,13.03
2018-08-31T02:33:54.326Z,12.70
2018-08-31T02:36:25.296Z,12.27
2018-08-31T02:38:55.596Z,13.47
2018-08-31T02:41:26.462Z,13.00
2018-08-31T02:43:57.269Z,13.67
2018-08-31T02:46:28.075Z,14.00
2018-08-31T02:48:58.736Z,13.50
2018-08-31T02:51:29.573Z,13.27
2018-08-31T02:54:00.235Z,13.80
2018-08-31T02:56:30.853Z,14.87
2018-08-31T02:59:01.501Z,17.27
2018-08-31T03:01:32.223Z,15.17
2018-08-31T03:04:02.812Z,12.53
2018-08-31T03:06:33.733Z,11.10
2018-08-31T03:09:05.585Z,11.67
2018-08-31T03:11:36.689Z,11.23
2018-08-31T03:14:07.324Z,11.13
2018-08-31T03:16:38.348Z,10.93
2018-08-31T03:19:08.766Z,11.30
2018-08-31T03:21:39.713Z,11.03
2018-08-31T03:24:10.416Z,11.27
2018-08-31T03:26:41.336Z,11.40
2018-08-31T03:29:12.133Z,13.03
2018-08-31T03:31:43.197Z,13.00
2018-08-31T03:34:13.757Z,12.80
2018-08-31T03:36:44.924Z,13.03
2018-08-31T03:39:15.581Z,13.93
2018-08-31T03:41:46.575Z,12.93
2018-08-31T03:44:17.377Z,14.00
2018-08-31T03:46:48.062Z,13.23
2018-08-31T03:49:18.819Z,12.50
2018-08-31T03:51:49.736Z,12.07
2018-08-31T03:54:20.293Z,11.60
2018-08-31T03:56:50.857Z,13.00
2018-08-31T03:59:21.500Z,16.53
2018-08-31T04:01:52.148Z,18.57
2018-08-31T04:04:22.866Z,16.97
2018-08-31T04:06:53.698Z,14.43
2018-08-31T04:09:24.481Z,14.73
2018-08-31T04:11:55.341Z,16.90
2018-08-31T04:14:26.598Z,16.43
2018-08-31T04:16:57.522Z,14.07
2018-08-31T04:19:28.163Z,13.17
2018-08-31T04:21:59.017Z,11.07
2018-08-31T04:24:29.545Z,13.43
2018-08-31T04:27:00.333Z,12.97
2018-08-31T04:29:30.804Z,12.67
2018-08-31T04:32:01.779Z,12.27
2018-08-31T04:34:32.470Z,12.07
2018-08-31T04:37:03.421Z,11.87
2018-08-31T04:39:34.089Z,15.50
2018-08-31T04:42:04.913Z,13.73
2018-08-31T04:44:35.554Z,16.93
2018-08-31T04:47:06.413Z,23.97
2018-08-31T04:49:36.973Z,35.97
2018-08-31T04:52:08.084Z,42.43
2018-08-31T04:54:38.642Z,31.00
2018-08-31T04:57:09.173Z,43.70
2018-08-31T04:59:39.820Z,34.60
2018-08-31T05:02:10.593Z,27.17
2018-08-31T05:04:41.185Z,35.37
2018-08-31T05:07:11.916Z,31.13
2018-08-31T05:09:42.581Z,44.47
2018-08-31T05:12:13.253Z,24.47
2018-08-31T05:14:43.957Z,18.77
2018-08-31T05:17:15.014Z,14.77
2018-08-31T05:19:45.694Z,14.13
2018-08-31T05:22:16.577Z,13.33
2018-08-31T05:24:47.211Z,15.07
2018-08-31T05:27:17.922Z,15.27
2018-08-31T05:29:48.572Z,14.83
2018-08-31T05:32:20.484Z,14.20
2018-08-31T05:34:51.395Z,13.70
2018-08-31T05:37:22.389Z,13.53
2018-08-31T05:39:52.885Z,14.67
2018-08-31T05:42:23.773Z,15.57
2018-08-31T05:44:54.300Z,15.33
2018-08-31T05:47:25.176Z,15.40
2018-08-31T05:49:55.858Z,15.27
2018-08-31T05:52:26.720Z,15.33
2018-08-31T05:54:57.340Z,15.10
2018-08-31T05:57:28.056Z,15.60
2018-08-31T05:59:58.789Z,15.43
2018-08-31T06:02:29.834Z,13.70
2018-08-31T06:05:00.649Z,14.20
2018-08-31T06:07:31.317Z,18.80
2018-08-31T06:10:01.894Z,45.93
2018-08-31T06:12:32.493Z,14.00
2018-08-31T06:15:03.138Z,14.07
2018-08-31T06:17:34.029Z,16.13
2018-08-31T06:20:04.653Z,14.40
2018-08-31T06:22:35.374Z,14.63
2018-08-31T06:25:06.321Z,13.53
2018-08-31T06:27:37.095Z,11.93
2018-08-31T06:30:07.828Z,11.90
2018-08-31T06:32:38.553Z,10.13
2018-08-31T06:35:09.021Z,8.63
2018-08-31T06:37:39.716Z,8.97
2018-08-31T06:40:10.421Z,10.50
2018-08-31T06:42:41.510Z,9.73
2018-08-31T06:45:12.129Z,8.77
2018-08-31T06:47:43.157Z,9.17
2018-08-31T06:50:13.762Z,8.90
2018-08-31T06:52:44.504Z,10.60
2018-08-31T06:55:15.127Z,9.53
2018-08-31T06:57:46.061Z,8.27
2018-08-31T07:00:16.686Z,7.93
2018-08-31T07:02:47.401Z,8.60
2018-08-31T07:05:17.948Z,7.87
2018-08-31T07:07:48.785Z,7.97
2018-08-31T07:10:19.533Z,7.87
2018-08-31T07:12:50.432Z,9.00
2018-08-31T07:15:21.572Z,8.00
2018-08-31T07:17:52.410Z,7.92
2018-08-31T07:20:22.953Z,7.67
2018-08-31T07:22:53.678Z,8.00
2018-08-31T07:25:24.466Z,8.25
2018-08-31T07:27:55.324Z,8.13
2018-08-31T07:30:25.820Z,7.07
2018-08-31T07:32:56.589Z,7.00
2018-08-31T07:35:27.176Z,7.25
2018-08-31T07:37:58.365Z,7.00
2018-08-31T07:40:29.093Z,7.08
2018-08-31T07:42:59.813Z,6.53
2018-08-31T07:45:32.137Z,6.90
2018-08-31T07:48:05.202Z,7.40
2018-08-31T07:50:38.069Z,6.70
2018-08-31T07:53:08.648Z,8.65
2018-08-31T07:55:39.394Z,8.60
2018-08-31T07:58:10.228Z,8.45
2018-08-31T08:00:46.105Z,7.42
2018-08-31T08:03:19.450Z,7.30
2018-08-31T08:05:53.529Z,7.97
2018-08-31T08:08:24.605Z,8.40
2018-08-31T08:10:55.398Z,6.85
2018-08-31T08:13:26.322Z,6.40
2018-08-31T08:15:57.073Z,6.30
2018-08-31T08:18:28.025Z,7.10
2018-08-31T08:20:58.837Z,6.55
2018-08-31T08:23:29.614Z,6.92
2018-08-31T08:26:00.325Z,6.78
2018-08-31T08:28:31.324Z,6.40
2018-08-31T08:31:02.066Z,6.25
2018-08-31T08:33:32.901Z,7.08
2018-08-31T08:36:03.421Z,6.60
2018-08-31T08:38:34.169Z,10.28
2018-08-31T08:41:04.973Z,5.75
2018-08-31T08:43:35.824Z,6.33
2018-08-31T08:46:06.500Z,5.67
2018-08-31T08:48:37.503Z,6.40
2018-08-31T08:51:08.065Z,6.72
2018-08-31T08:53:38.801Z,6.28
2018-08-31T08:56:09.461Z,5.80
2018-08-31T08:58:40.333Z,6.05
2018-08-31T09:01:10.944Z,6.17
2018-08-31T09:03:41.821Z,6.35
2018-08-31T09:06:12.564Z,5.42
2018-08-31T09:08:43.586Z,8.13
2018-08-31T09:11:14.265Z,6.17
2018-08-31T09:13:45.101Z,7.37
2018-08-31T09:16:15.777Z,5.70
2018-08-31T09:18:46.557Z,6.78
2018-08-31T09:21:17.168Z,5.55
2018-08-31T09:23:49.625Z,6.58
2018-08-31T09:26:22.053Z,5.42
2018-08-31T09:28:52.905Z,11.78
2018-08-31T09:31:23.516Z,5.97
2018-08-31T09:33:54.684Z,5.97
2018-08-31T09:36:25.485Z,5.83
2018-08-31T09:38:56.340Z,7.28
2018-08-31T09:41:27.053Z,6.40
2018-08-31T09:43:57.795Z,6.10
2018-08-31T09:46:28.414Z,8.13
2018-08-31T09:48:59.170Z,5.72
2018-08-31T09:51:29.817Z,5.60
2018-08-31T09:54:00.771Z,7.35
2018-08-31T09:56:31.516Z,11.80
2018-08-31T09:59:02.534Z,6.60
2018-08-31T10:01:35.805Z,6.15
2018-08-31T10:04:06.451Z,6.12
2018-08-31T10:06:37.102Z,6.12
2018-08-31T10:09:10.261Z,7.65
2018-08-31T10:11:40.817Z,6.10
2018-08-31T10:14:11.457Z,5.30
2018-08-31T10:16:42.119Z,6.05
2018-08-31T10:19:13.113Z,5.95
2018-08-31T10:21:43.692Z,8.18
2018-08-31T10:24:14.850Z,6.95
2018-08-31T10:26:45.387Z,10.13
2018-08-31T10:29:16.214Z,8.45
2018-08-31T10:31:46.841Z,6.17
2018-08-31T10:34:17.558Z,6.10
2018-08-31T10:36:47.965Z,12.03
2018-08-31T10:39:18.712Z,17.55
2018-08-31T10:41:49.338Z,6.53
2018-08-31T10:44:20.160Z,5.87
2018-08-31T10:46:50.748Z,6.97
2018-08-31T10:49:21.661Z,5.40
2018-08-31T10:51:52.370Z,6.55
2018-08-31T10:54:23.593Z,6.10
2018-08-31T10:56:54.124Z,5.60
2018-08-31T10:59:26.296Z,6.12
2018-08-31T11:01:56.812Z,6.80
2018-08-31T11:04:28.644Z,7.37
2018-08-31T11:06:59.355Z,6.00
2018-08-31T11:09:30.250Z,5.37
2018-08-31T11:12:00.903Z,5.80
2018-08-31T11:14:31.909Z,6.08
2018-08-31T11:17:02.579Z,5.55
2018-08-31T11:19:33.910Z,6.20
2018-08-31T11:22:04.432Z,17.67
2018-08-31T11:24:35.468Z,6.05
2018-08-31T11:27:06.128Z,5.05
2018-08-31T11:29:36.980Z,5.10
2018-08-31T11:32:07.619Z,5.60
2018-08-31T11:34:38.413Z,4.95
2018-08-31T11:37:09.073Z,4.65
2018-08-31T11:39:40.021Z,7.00
2018-08-31T11:42:10.726Z,25.57
2018-08-31T11:44:41.332Z,4.95
2018-08-31T11:47:11.910Z,5.65
2018-08-31T11:49:42.753Z,4.87
2018-08-31T11:52:13.504Z,5.35
2018-08-31T11:54:44.652Z,5.67
2018-08-31T11:57:15.273Z,5.08
2018-08-31T11:59:47.045Z,5.60
2018-08-31T12:02:18.809Z,5.65
2018-08-31T12:04:50.714Z,7.90
2018-08-31T12:07:22.749Z,6.15
2018-08-31T12:09:53.753Z,5.03
2018-08-31T12:12:24.421Z,12.98
2018-08-31T12:14:55.340Z,5.17
2018-08-31T12:17:26.060Z,5.28
2018-08-31T12:19:56.849Z,5.05
2018-08-31T12:22:27.372Z,5.55
2018-08-31T12:24:58.244Z,5.00
2018-08-31T12:27:28.858Z,5.37
2018-08-31T12:29:59.804Z,4.92
2018-08-31T12:32:30.399Z,6.65
2018-08-31T12:35:00.984Z,8.58
2018-08-31T12:37:31.616Z,6.35
2018-08-31T12:40:02.369Z,5.12
2018-08-31T12:42:32.834Z,5.75
2018-08-31T12:45:03.785Z,4.83
2018-08-31T12:47:34.525Z,5.10
2018-08-31T12:50:05.465Z,5.25
2018-08-31T12:52:36.137Z,5.90
2018-08-31T12:55:08.253Z,6.35
2018-08-31T12:57:38.873Z,7.28
2018-08-31T13:00:09.601Z,5.60
2018-08-31T13:02:40.657Z,5.60
2018-08-31T13:05:12.166Z,7.33
2018-08-31T13:07:42.872Z,5.80
2018-08-31T13:10:13.621Z,6.17
2018-08-31T13:12:44.242Z,5.87
2018-08-31T13:15:15.276Z,6.40
2018-08-31T13:17:46.008Z,8.63
2018-08-31T13:20:17.025Z,17.07
2018-08-31T13:22:48.056Z,9.80
2018-08-31T13:25:18.980Z,6.08
2018-08-31T13:27:49.605Z,7.58
2018-08-31T13:30:20.441Z,5.50
2018-08-31T13:32:51.085Z,16.97
2018-08-31T13:35:21.904Z,5.45
2018-08-31T13:37:52.664Z,6.42
2018-08-31T13:40:23.440Z,9.60
2018-08-31T13:42:54.120Z,5.85
2018-08-31T13:45:25.053Z,6.75
2018-08-31T13:47:55.689Z,7.33
2018-08-31T13:50:26.178Z,6.65
2018-08-31T13:52:57.165Z,6.37
2018-08-31T13:55:28.080Z,8.78
2018-08-31T13:57:58.784Z,7.22
2018-08-31T14:00:29.484Z,6.50
2018-08-31T14:03:00.201Z,6.72
2018-08-31T14:05:30.785Z,6.20
2018-08-31T14:08:01.393Z,7.60
2018-08-31T14:10:32.196Z,7.05
2018-08-31T14:13:03.817Z,8.00
2018-08-31T14:15:34.553Z,8.90
2018-08-31T14:18:04.997Z,5.15
2018-08-31T14:20:35.944Z,6.55
2018-08-31T14:23:06.630Z,8.18
2018-08-31T14:25:37.460Z,6.22
2018-08-31T14:28:08.080Z,6.53
2018-08-31T14:30:38.869Z,6.03
2018-08-31T14:33:09.418Z,7.92
2018-08-31T14:35:42.488Z,7.35
2018-08-31T14:38:12.985Z,6.17
2018-08-31T14:40:44.935Z,6.47
2018-08-31T14:43:15.637Z,17.17
2018-08-31T14:45:46.464Z,6.05
2018-08-31T14:48:17.137Z,6.97
2018-08-31T14:50:47.989Z,7.00
2018-08-31T14:53:18.741Z,6.25
2018-08-31T14:55:49.627Z,6.55
2018-08-31T14:58:20.093Z,6.40
2018-08-31T15:00:50.918Z,6.15
2018-08-31T15:03:21.529Z,6.22
2018-08-31T15:05:52.443Z,8.75
2018-08-31T15:08:23.101Z,6.20
2018-08-31T15:10:53.935Z,6.55
2018-08-31T15:13:24.736Z,6.05
2018-08-31T15:15:55.729Z,12.40
2018-08-31T15:18:26.440Z,17.40
2018-08-31T15:20:57.273Z,10.40
2018-08-31T15:23:27.862Z,15.50
2018-08-31T15:25:58.692Z,13.22
2018-08-31T15:28:29.350Z,24.45
2018-08-31T15:31:00.285Z,7.30
2018-08-31T15:33:30.868Z,7.67
2018-08-31T15:36:01.952Z,7.90
2018-08-31T15:38:32.532Z,6.35
2018-08-31T15:41:03.032Z,6.50
2018-08-31T15:43:33.664Z,9.05
2018-08-31T15:46:04.636Z,8.75
2018-08-31T15:48:35.300Z,18.77
2018-08-31T15:51:06.086Z,7.30
2018-08-31T15:53:36.757Z,7.22
2018-08-31T15:56:08.083Z,7.25
2018-08-31T15:58:38.718Z,8.28
2018-08-31T16:01:09.333Z,6.90
2018-08-31T16:03:40.002Z,9.25
2018-08-31T16:06:11.041Z,24.27
2018-08-31T16:08:41.601Z,8.40
2018-08-31T16:11:12.363Z,9.35
2018-08-31T16:13:43.085Z,7.80
2018-08-31T16:16:14.156Z,8.05
2018-08-31T16:18:44.745Z,7.40
2018-08-31T16:21:15.966Z,7.40
2018-08-31T16:23:46.666Z,8.93
2018-08-31T16:26:17.428Z,10.30
2018-08-31T16:28:48.031Z,9.18
2018-08-31T16:31:18.786Z,7.97
2018-08-31T16:33:49.405Z,8.05
2018-08-31T16:36:20.152Z,8.48
2018-08-31T16:38:50.876Z,9.33
2018-08-31T16:41:21.661Z,7.30
2018-08-31T16:43:52.305Z,40.20
2018-08-31T16:46:23.198Z,14.03
2018-08-31T16:48:53.769Z,12.82
2018-08-31T16:51:24.445Z,13.20
2018-08-31T16:53:55.052Z,21.40
2018-08-31T16:56:26.077Z,16.37
2018-08-31T16:58:56.750Z,14.33
2018-08-31T17:01:27.799Z,10.70
2018-08-31T17:03:58.473Z,10.70
2018-08-31T17:06:29.193Z,10.63
2018-08-31T17:08:59.892Z,10.23
2018-08-31T17:11:30.554Z,9.83
2018-08-31T17:14:01.241Z,10.37
2018-08-31T17:16:32.316Z,10.67
2018-08-31T17:19:02.757Z,10.47
2018-08-31T17:21:33.568Z,10.43
2018-08-31T17:24:04.256Z,11.00
2018-08-31T17:26:40.041Z,10.17
2018-08-31T17:29:15.614Z,10.67
2018-08-31T17:31:51.168Z,11.00
2018-08-31T17:34:26.864Z,11.23
2018-08-31T17:37:02.661Z,11.33
2018-08-31T17:39:33.417Z,12.60
2018-08-31T17:42:04.260Z,11.10
2018-08-31T17:44:34.809Z,11.43
2018-08-31T17:47:06.038Z,11.60
2018-08-31T17:49:36.681Z,11.43
2018-08-31T17:52:07.772Z,11.57
2018-08-31T17:54:38.487Z,11.00
2018-08-31T17:57:10.586Z,11.80
2018-08-31T17:59:41.393Z,12.20
2018-08-31T18:02:12.390Z,11.57
2018-08-31T18:04:43.701Z,12.03
2018-08-31T18:07:14.554Z,11.57
2018-08-31T18:09:45.299Z,11.93
2018-08-31T18:12:16.146Z,12.07
2018-08-31T18:14:46.733Z,12.47
2018-08-31T18:17:17.701Z,13.77
2018-08-31T18:19:48.312Z,13.47
2018-08-31T18:22:20.045Z,14.23
2018-08-31T18:24:50.477Z,13.03
2018-08-31T18:27:21.357Z,11.17
2018-08-31T18:29:52.085Z,10.17
2018-08-31T18:32:23.075Z,11.87
2018-08-31T18:34:53.804Z,11.80
2018-08-31T18:37:24.725Z,10.93
2018-08-31T18:39:55.462Z,10.33
2018-08-31T18:42:26.229Z,11.47
2018-08-31T18:44:56.904Z,10.10
2018-08-31T18:47:27.823Z,9.47
2018-08-31T18:49:58.633Z,9.43
2018-08-31T18:52:29.391Z,9.30
2018-08-31T18:55:00.216Z,9.73
2018-08-31T18:57:30.981Z,9.63
2018-08-31T19:00:01.566Z,9.53
2018-08-31T19:02:32.433Z,8.83
2018-08-31T19:05:02.813Z,9.77
2018-08-31T19:07:33.425Z,9.57
2018-08-31T19:10:04.109Z,10.20
2018-08-31T19:12:35.044Z,9.77
2018-08-31T19:15:05.784Z,9.60
2018-08-31T19:17:36.541Z,10.17
2018-08-31T19:20:07.119Z,9.87
2018-08-31T19:22:37.678Z,10.23
2018-08-31T19:25:08.324Z,8.93
2018-08-31T19:27:39.065Z,7.97
2018-08-31T19:30:09.813Z,8.67
2018-08-31T19:32:40.646Z,7.90
2018-08-31T19:35:11.155Z,8.13
2018-08-31T19:37:41.801Z,8.00
2018-08-31T19:40:12.253Z,7.73
2018-08-31T19:42:43.081Z,8.30
2018-08-31T19:45:13.696Z,7.87
2018-08-31T19:47:44.577Z,7.67
2018-08-31T19:50:14.957Z,7.10
2018-08-31T19:52:45.933Z,8.00
2018-08-31T19:55:16.742Z,7.80
2018-08-31T19:57:47.498Z,8.20
2018-08-31T20:00:18.152Z,8.47
2018-08-31T20:02:48.934Z,8.10
2018-08-31T20:05:19.505Z,7.30
2018-08-31T20:07:50.577Z,7.77
2018-08-31T20:10:21.139Z,7.50
2018-08-31T20:12:52.156Z,8.03
2018-08-31T20:15:22.805Z,8.13
2018-08-31T20:17:53.561Z,8.93
2018-08-31T20:20:24.169Z,7.13
2018-08-31T20:22:54.843Z,7.97
2018-08-31T20:25:25.482Z,7.87
2018-08-31T20:27:56.016Z,7.80
2018-08-31T20:30:26.569Z,8.03
2018-08-31T20:32:57.182Z,7.93
2018-08-31T20:35:27.805Z,8.03
2018-08-31T20:37:59.592Z,7.43
2018-08-31T20:40:30.065Z,7.97
2018-08-31T20:43:00.784Z,8.43
2018-08-31T20:45:31.506Z,8.40
2018-08-31T20:48:02.201Z,7.90
2018-08-31T20:50:32.827Z,8.17
2018-08-31T20:53:03.497Z,8.37
2018-08-31T20:55:34.264Z,8.33
2018-08-31T20:58:05.073Z,9.13
2018-08-31T21:00:35.844Z,8.83
2018-08-31T21:03:06.686Z,9.37
2018-08-31T21:05:37.376Z,8.67
2018-08-31T21:08:08.344Z,9.13
2018-08-31T21:10:39.005Z,10.13
2018-08-31T21:13:09.881Z,10.10
2018-08-31T21:15:40.459Z,9.60
2018-08-31T21:18:11.417Z,9.57
2018-08-31T21:20:41.857Z,9.90
2018-08-31T21:23:12.621Z,9.23
2018-08-31T21:25:43.308Z,8.60
2018-08-31T21:28:13.930Z,9.07
2018-08-31T21:30:44.497Z,9.07
2018-08-31T21:33:15.290Z,9.13
2018-08-31T21:35:45.961Z,9.83
2018-08-31T21:38:16.940Z,8.90
2018-08-31T21:40:47.577Z,8.53
2018-08-31T21:43:18.226Z,8.57
2018-08-31T21:45:48.893Z,9.03
2018-08-31T21:48:19.745Z,9.27
2018-08-31T21:50:50.590Z,8.57
2018-08-31T21:53:21.481Z,8.67
2018-08-31T21:55:52.105Z,9.00
2018-08-31T21:58:22.821Z,8.50
2018-08-31T22:00:57.331Z,8.40
2018-08-31T22:03:28.004Z,7.80
2018-08-31T22:05:58.601Z,8.40
2018-08-31T22:08:29.413Z,8.43
2018-08-31T22:11:00.092Z,7.73
2018-08-31T22:13:31.124Z,8.80
2018-08-31T22:16:01.864Z,7.37
2018-08-31T22:18:32.637Z,7.70
2018-08-31T22:21:03.624Z,7.70
2018-08-31T22:23:34.212Z,7.90
2018-08-31T22:26:04.837Z,8.60
2018-08-31T22:28:35.621Z,8.53
2018-08-31T22:31:06.341Z,8.27
2018-08-31T22:33:37.340Z,9.03
2018-08-31T22:36:07.905Z,8.43
2018-08-31T22:38:38.836Z,8.30
2018-08-31T22:41:09.594Z,8.40
2018-08-31T22:43:45.345Z,8.63
2018-08-31T22:46:16.048Z,8.47
2018-08-31T22:48:47.073Z,8.23
2018-08-31T22:51:17.754Z,9.23
2018-08-31T22:53:48.636Z,9.50
2018-08-31T22:56:19.227Z,9.07
2018-08-31T22:58:50.169Z,9.73
2018-08-31T23:01:20.617Z,9.53
2018-08-31T23:03:51.357Z,9.07
2018-08-31T23:06:21.953Z,9.40
2018-08-31T23:08:52.781Z,9.43
2018-08-31T23:11:23.440Z,9.50
2018-08-31T23:13:54.348Z,10.20
2018-08-31T23:16:24.947Z,9.80
2018-08-31T23:18:55.669Z,10.17
2018-08-31T23:21:26.385Z,10.27
2018-08-31T23:23:57.026Z,9.00
2018-08-31T23:26:27.602Z,9.77
2018-08-31T23:28:58.300Z,10.47
2018-08-31T23:31:28.945Z,9.80
2018-08-31T23:33:59.770Z,10.30
2018-08-31T23:36:30.340Z,9.17
2018-08-31T23:39:01.117Z,10.10
2018-08-31T23:41:31.770Z,10.10
2018-08-31T23:44:02.409Z,10.67
2018-08-31T23:46:33.131Z,10.77
2018-08-31T23:49:03.814Z,9.67
2018-08-31T23:51:34.414Z,9.90
2018-08-31T23:54:05.161Z,9.20
2018-08-31T23:56:35.850Z,9.50
2018-08-31T23:59:06.512Z,9.53
